Time;durP1;ratioP1;P1;durP2;ratioP2;P2;SDS_P1;SDS_P2;PMS_P1;PMS_P2;Temp;Humidity;BMP_temperature;BMP_pressure;BME280_temperature;BME280_humidity;BME280_pressure;Samples;Min_cycle;Max_cycle;Signal;HPM_P1;HPM_P2
2023/07/21 00:01:28;;;;;;;1999.90;999.90;;;18.10;99.90;;;;;;5011771;28;20497;-93
2023/07/21 00:04:06;;;;;;;1999.90;999.90;;;18.10;99.90;;;;;;5036667;28;20025;-92
2023/07/21 00:06:31;;;;;;;1999.90;999.90;;;18.10;99.90;;;;;;5040711;28;20017;-94
2023/07/21 00:09:07;;;;;;;1999.90;999.90;;;18.20;99.90;;;;;;5041139;28;20028;-92
2023/07/21 00:11:33;;;;;;;1999.90;999.90;;;18.20;99.90;;;;;;5033542;28;20098;-93
2023/07/21 00:14:01;;;;;;;1999.90;999.90;;;18.10;99.90;;;;;;4982866;28;20034;-92
2023/07/21 00:16:29;;;;;;;1999.90;999.90;;;18.10;99.90;;;;;;4980310;28;20026;-93
2023/07/21 00:19:03;;;;;;;1999.90;999.90;;;18.10;99.90;;;;;;4997459;28;20041;-93
2023/07/21 00:21:42;;;;;;;1999.90;999.90;;;18.10;99.90;;;;;;4979111;28;20026;-93
2023/07/21 00:24:13;;;;;;;1999.90;999.90;;;18.10;99.90;;;;;;4980497;28;20378;-93
2023/07/21 00:26:42;;;;;;;1999.90;999.90;;;18.00;99.90;;;;;;4999273;28;20053;-92
2023/07/21 00:29:11;;;;;;;1999.90;999.90;;;18.00;99.90;;;;;;4999101;28;20400;-92
2023/07/21 00:31:46;;;;;;;1999.90;999.90;;;18.00;99.90;;;;;;4998794;28;20508;-93
2023/07/21 00:34:19;;;;;;;1999.90;999.90;;;18.10;99.90;;;;;;4999024;28;20024;-93
2023/07/21 00:36:48;;;;;;;1999.90;999.90;;;18.00;99.90;;;;;;5010515;28;20105;-92
2023/07/21 00:39:14;;;;;;;1999.90;999.90;;;18.00;99.90;;;;;;4996933;28;20026;-93
2023/07/21 00:41:40;;;;;;;1999.90;999.90;;;18.00;99.90;;;;;;4995657;28;20038;-93
2023/07/21 00:44:18;;;;;;;1999.90;999.90;;;18.00;99.90;;;;;;4995121;28;20099;-93
2023/07/21 00:46:47;;;;;;;1999.90;999.90;;;18.10;99.90;;;;;;4995385;28;20125;-93
2023/07/21 00:49:27;;;;;;;1999.90;999.90;;;18.10;99.90;;;;;;4995246;28;20034;-93
2023/07/21 00:51:59;;;;;;;1999.90;999.90;;;18.10;99.90;;;;;;4995366;28;20490;-93
2023/07/21 00:54:31;;;;;;;1999.90;999.90;;;18.10;99.90;;;;;;4995481;28;20030;-93
2023/07/21 00:57:01;;;;;;;1999.90;999.90;;;18.20;99.90;;;;;;4995183;28;20442;-93
2023/07/21 00:59:29;;;;;;;1999.90;999.90;;;18.20;99.90;;;;;;4996338;28;20022;-93
2023/07/21 01:02:20;;;;;;;1999.90;999.90;;;18.20;99.90;;;;;;4994984;28;20533;-92
2023/07/21 01:05:08;;;;;;;1999.90;999.90;;;18.20;99.90;;;;;;4994736;28;20033;-92
2023/07/21 01:07:44;;;;;;;1999.90;999.90;;;18.20;99.90;;;;;;4995127;28;20026;-92
2023/07/21 01:10:34;;;;;;;1999.90;999.90;;;18.20;99.90;;;;;;4991522;28;20018;-93
2023/07/21 01:13:26;;;;;;;1999.90;999.90;;;18.20;99.90;;;;;;4976321;28;20093;-93
2023/07/21 01:15:59;;;;;;;1999.90;999.90;;;18.20;99.90;;;;;;4991787;28;20379;-94
2023/07/21 01:18:25;;;;;;;1999.90;999.90;;;18.30;99.90;;;;;;4972498;28;20042;-93
2023/07/21 01:20:53;;;;;;;1999.90;999.90;;;18.30;99.90;;;;;;4975254;28;20027;-93
2023/07/21 01:23:34;;;;;;;1999.90;999.90;;;18.30;99.90;;;;;;4973397;28;20039;-92
2023/07/21 01:26:11;;;;;;;1999.90;999.90;;;18.20;99.90;;;;;;4987917;28;20525;-92
2023/07/21 01:28:43;;;;;;;1999.90;999.90;;;18.20;99.90;;;;;;4975204;28;20037;-92
2023/07/21 01:31:12;;;;;;;1999.90;999.90;;;18.20;99.90;;;;;;4975270;28;20390;-93
2023/07/21 01:33:45;;;;;;;1999.90;999.90;;;18.30;99.90;;;;;;4980801;28;20027;-92
2023/07/21 01:36:10;;;;;;;;;;;18.30;99.90;;;;;;4993788;28;20079;-93
2023/07/21 01:38:39;;;;;;;1999.90;999.90;;;18.20;99.90;;;;;;4994478;28;19906;-92
2023/07/21 01:41:33;;;;;;;1999.90;999.90;;;18.30;99.90;;;;;;4993039;28;20039;-92
2023/07/21 01:44:05;;;;;;;1999.90;999.90;;;18.20;99.90;;;;;;4994559;28;20040;-92
2023/07/21 01:46:46;;;;;;;1999.90;999.90;;;18.20;99.90;;;;;;4993300;28;20043;-93
2023/07/21 01:49:20;;;;;;;1999.90;999.90;;;18.20;99.90;;;;;;5013209;28;20305;-92
2023/07/21 01:51:52;;;;;;;1999.90;999.90;;;18.20;99.90;;;;;;5020538;28;20013;-92
2023/07/21 01:54:52;;;;;;;1999.90;999.90;;;18.10;99.90;;;;;;5019856;28;20018;-92
2023/07/21 01:57:42;;;;;;;1999.90;999.90;;;18.10;99.90;;;;;;5015342;28;20057;-92
2023/07/21 02:00:17;;;;;;;1999.90;999.90;;;18.00;99.90;;;;;;4995184;28;20023;-92
2023/07/21 02:02:56;;;;;;;1999.90;999.90;;;18.00;99.90;;;;;;4993813;28;20034;-92
2023/07/21 02:05:39;;;;;;;1999.90;999.90;;;17.90;99.90;;;;;;4993645;28;20030;-92
2023/07/21 02:08:24;;;;;;;;;;;17.90;99.90;;;;;;4994635;28;20035;-92
2023/07/21 02:11:04;;;;;;;1999.90;999.90;;;17.80;99.90;;;;;;4993569;28;19906;-93
2023/07/21 02:13:33;;;;;;;1999.90;999.90;;;17.80;99.90;;;;;;4993732;28;20109;-92
2023/07/21 02:16:06;;;;;;;1999.90;999.90;;;17.70;99.90;;;;;;4991581;28;20117;-93
2023/07/21 02:18:43;;;;;;;1999.90;999.90;;;17.70;99.90;;;;;;4993790;28;20019;-93
2023/07/21 02:21:14;;;;;;;1999.90;999.90;;;17.70;99.90;;;;;;4993641;28;20027;-93
2023/07/21 02:23:45;;;;;;;1999.90;999.90;;;17.70;99.90;;;;;;4993355;28;20077;-94
2023/07/21 02:26:10;;;;;;;1999.90;999.90;;;17.70;99.90;;;;;;4976010;28;20038;-93
2023/07/21 02:28:47;;;;;;;1999.90;999.90;;;17.70;99.90;;;;;;4975205;28;20023;-92
2023/07/21 02:31:28;;;;;;;1999.90;999.90;;;17.70;99.90;;;;;;4974058;28;20486;-93
2023/07/21 02:33:59;;;;;;;1999.90;999.90;;;17.70;99.90;;;;;;4981968;28;20125;-93
2023/07/21 02:36:45;;;;;;;1999.90;999.90;;;17.70;99.90;;;;;;4992621;28;20532;-93
2023/07/21 02:39:16;;;;;;;1999.90;999.90;;;17.70;99.90;;;;;;4993351;28;20026;-93
2023/07/21 02:41:50;;;;;;;1999.90;999.90;;;17.60;99.90;;;;;;4993046;28;20046;-92
2023/07/21 02:44:19;;;;;;;1999.90;999.90;;;17.60;99.90;;;;;;4993455;28;20489;-92
2023/07/21 02:47:05;;;;;;;1999.90;999.90;;;17.50;99.90;;;;;;4993249;28;20031;-92
2023/07/21 02:49:36;;;;;;;1999.90;999.90;;;17.50;99.90;;;;;;4993262;28;20030;-92
2023/07/21 02:52:14;;;;;;;1999.90;999.90;;;17.40;99.90;;;;;;4992685;28;20038;-93
2023/07/21 02:54:49;;;;;;;1999.90;999.90;;;17.40;99.90;;;;;;4993048;28;20038;-92
2023/07/21 02:57:40;;;;;;;1999.90;999.90;;;17.40;99.90;;;;;;4992663;28;20038;-92
2023/07/21 03:00:16;;;;;;;1999.90;999.90;;;17.40;99.90;;;;;;4993013;28;20469;-93
2023/07/21 03:02:51;;;;;;;1999.90;999.90;;;17.30;99.90;;;;;;4992750;28;20176;-92
2023/07/21 03:05:32;;;;;;;1999.90;999.90;;;17.30;99.90;;;;;;4992851;28;20032;-92
2023/07/21 03:08:05;;;;;;;1999.90;999.90;;;17.30;99.90;;;;;;4993109;28;20073;-93
2023/07/21 03:10:34;;;;;;;1999.90;999.90;;;17.30;99.90;;;;;;4989475;28;20039;-92
2023/07/21 03:13:41;;;;;;;1999.90;999.90;;;17.30;99.90;;;;;;4972314;28;20030;-92
2023/07/21 03:16:16;;;;;;;1999.90;999.90;;;17.30;99.90;;;;;;4973498;28;20082;-92
2023/07/21 03:18:48;;;;;;;1999.90;999.90;;;17.30;99.90;;;;;;4988632;28;20034;-93
2023/07/21 03:21:30;;;;;;;1999.90;999.90;;;17.30;99.90;;;;;;4972471;28;20478;-91
2023/07/21 03:24:07;;;;;;;1999.90;999.90;;;17.30;99.90;;;;;;4974337;28;20475;-92
2023/07/21 03:26:33;;;;;;;1999.90;999.90;;;17.20;99.90;;;;;;4992291;28;20065;-93
2023/07/21 03:29:01;;;;;;;1999.90;999.90;;;17.20;99.90;;;;;;4992311;28;20478;-92
2023/07/21 03:31:27;;;;;;;1999.90;999.90;;;17.20;99.90;;;;;;4992278;28;20026;-93
2023/07/21 03:34:03;;;;;;;1999.90;999.90;;;17.20;99.90;;;;;;4991607;28;20034;-93
2023/07/21 03:36:37;;;;;;;1999.90;999.90;;;17.20;99.90;;;;;;4991159;28;20054;-92
2023/07/21 03:39:08;;;;;;;1999.90;999.90;;;17.20;99.90;;;;;;4992472;28;20110;-93
2023/07/21 03:41:39;;;;;;;1999.90;999.90;;;17.10;99.90;;;;;;4991970;28;20034;-92
2023/07/21 03:44:13;;;;;;;1999.90;999.90;;;17.10;99.90;;;;;;5000757;28;20094;-92
2023/07/21 03:46:42;;;;;;;1999.90;999.90;;;17.10;99.90;;;;;;5018501;28;20030;-92
2023/07/21 03:49:11;;;;;;;1999.90;999.90;;;17.00;99.90;;;;;;5018011;28;20057;-92
2023/07/21 03:51:39;;;;;;;1999.90;999.90;;;17.00;99.90;;;;;;5019272;28;20014;-92
2023/07/21 03:54:07;;;;;;;1999.90;999.90;;;17.00;99.90;;;;;;5018265;28;20027;-92
2023/07/21 03:56:36;;;;;;;1999.90;999.90;;;17.00;99.90;;;;;;5018485;28;20015;-92
2023/07/21 03:59:07;;;;;;;1999.90;999.90;;;17.00;99.90;;;;;;4994495;28;20022;-92
2023/07/21 04:01:42;;;;;;;1999.90;999.90;;;16.90;99.90;;;;;;4992367;28;20545;-92
2023/07/21 04:04:12;;;;;;;1999.90;999.90;;;16.90;99.90;;;;;;4992313;28;20374;-92
2023/07/21 04:06:54;;;;;;;1999.90;999.90;;;16.90;99.90;;;;;;4993051;28;20463;-92
2023/07/21 04:09:22;;;;;;;1999.90;999.90;;;16.80;99.90;;;;;;4991992;28;20042;-92
2023/07/21 04:12:03;;;;;;;1999.90;999.90;;;16.80;99.90;;;;;;4993322;28;20050;-93
2023/07/21 04:14:37;;;;;;;1999.90;999.90;;;16.70;99.90;;;;;;4992183;28;20022;-93
2023/07/21 04:17:15;;;;;;;1999.90;999.90;;;16.70;99.90;;;;;;4992303;28;20027;-93
2023/07/21 04:19:42;;;;;;;1999.90;999.90;;;16.60;99.90;;;;;;4992363;28;20069;-92
2023/07/21 04:22:21;;;;;;;1999.90;999.90;;;16.60;99.90;;;;;;4991813;28;20050;-93
2023/07/21 04:24:51;;;;;;;1999.90;999.90;;;16.50;99.90;;;;;;4993582;28;20026;-93
2023/07/21 04:27:37;;;;;;;1999.90;999.90;;;16.50;99.90;;;;;;4992733;28;20030;-92
2023/07/21 04:30:10;;;;;;;1999.90;999.90;;;16.40;99.90;;;;;;4990202;28;20543;-92
2023/07/21 04:32:40;;;;;;;1999.90;999.90;;;16.40;99.90;;;;;;4992048;28;20033;-93
2023/07/21 04:35:19;;;;;;;1999.90;999.90;;;16.30;99.90;;;;;;4979503;28;20045;-93
2023/07/21 04:37:44;;;;;;;1999.90;999.90;;;16.30;99.90;;;;;;4991821;28;20057;-92
2023/07/21 04:40:21;;;;;;;1999.90;999.90;;;16.30;99.90;;;;;;4991685;28;20474;-91
2023/07/21 04:42:50;;;;;;;1999.90;999.90;;;16.30;99.90;;;;;;4991799;28;20042;-92
2023/07/21 04:45:17;;;;;;;1999.90;999.90;;;16.30;99.90;;;;;;4991612;28;20030;-91
2023/07/21 04:48:05;;;;;;;1999.90;999.90;;;16.30;99.90;;;;;;4991281;28;20041;-92
2023/07/21 04:50:43;;;;;;;1999.90;999.90;;;16.30;99.90;;;;;;4991683;28;20084;-92
2023/07/21 04:53:19;;;;;;;1999.90;999.90;;;16.30;99.90;;;;;;4992389;28;20129;-92
2023/07/21 04:56:14;;;;;;;1999.90;999.90;;;16.40;99.90;;;;;;4995334;28;20026;-91
2023/07/21 04:58:48;;;;;;;1999.90;999.90;;;16.40;99.90;;;;;;4989614;28;20043;-92
2023/07/21 05:01:18;;;;;;;1999.90;999.90;;;16.50;99.90;;;;;;4975569;28;20031;-91
2023/07/21 05:03:47;;;;;;;1999.90;999.90;;;16.50;99.90;;;;;;4980161;28;20113;-91
2023/07/21 05:06:18;;;;;;;1999.90;999.90;;;16.40;99.90;;;;;;4994967;28;20073;-92
2023/07/21 05:08:49;;;;;;;1999.90;999.90;;;16.50;99.90;;;;;;5011396;28;20034;-90
2023/07/21 05:11:23;;;;;;;1999.90;999.90;;;16.60;99.90;;;;;;4979895;28;20030;-92
2023/07/21 05:13:51;;;;;;;1999.90;999.90;;;16.60;99.90;;;;;;4980112;28;20022;-93
2023/07/21 05:16:26;;;;;;;1999.90;999.90;;;16.60;99.90;;;;;;5011268;28;20362;-92
2023/07/21 05:19:02;;;;;;;;;;;;;;;;;;;;;
2023/07/21 05:21:30;;;;;;;1999.90;999.90;;;16.70;99.90;;;;;;4977381;28;20053;-93
2023/07/21 05:23:57;;;;;;;1999.90;999.90;;;16.70;99.90;;;;;;4979438;28;20044;-92
2023/07/21 05:26:22;;;;;;;1999.90;999.90;;;16.80;99.90;;;;;;4994129;28;20042;-93
2023/07/21 05:28:54;;;;;;;1999.90;999.90;;;16.80;99.90;;;;;;4995624;28;20023;-92
2023/07/21 05:31:25;;;;;;;1999.90;999.90;;;16.90;99.90;;;;;;4994198;28;20023;-92
2023/07/21 05:34:02;;;;;;;1999.90;999.90;;;16.90;99.90;;;;;;4993912;28;20026;-93
2023/07/21 05:36:27;;;;;;;1999.90;999.90;;;17.00;99.90;;;;;;5001248;28;20052;-93
2023/07/21 05:38:55;;;;;;;1999.90;999.90;;;16.90;99.90;;;;;;4998688;28;20046;-92
2023/07/21 05:41:24;;;;;;;1999.90;999.90;;;17.00;99.90;;;;;;4994235;28;20030;-93
2023/07/21 05:43:50;;;;;;;1999.90;999.90;;;17.00;99.90;;;;;;4990216;28;20031;-93
2023/07/21 05:46:21;;;;;;;1999.90;999.90;;;17.00;99.90;;;;;;4993082;28;20042;-92
2023/07/21 05:48:47;;;;;;;1999.90;999.90;;;17.00;99.90;;;;;;5009529;28;20030;-90
2023/07/21 05:51:13;;;;;;;1999.90;999.90;;;17.00;99.90;;;;;;5000607;28;20006;-93
2023/07/21 05:53:38;;;;;;;1999.90;999.90;;;17.00;99.90;;;;;;5000621;28;20026;-92
2023/07/21 05:56:07;;;;;;;1999.90;999.90;;;17.10;99.90;;;;;;5000295;28;20018;-93
2023/07/21 05:58:36;;;;;;;1999.90;999.90;;;17.10;99.90;;;;;;5000368;28;20015;-92
2023/07/21 06:01:03;;;;;;;1999.90;999.90;;;17.10;99.90;;;;;;4982852;28;20514;-94
2023/07/21 06:03:31;;;;;;;1999.90;999.90;;;17.00;99.90;;;;;;4973827;28;20577;-94
2023/07/21 06:06:01;;;;;;;1999.90;999.90;;;17.00;99.90;;;;;;4974076;28;20031;-93
2023/07/21 06:08:26;;;;;;;1999.90;999.90;;;17.00;99.90;;;;;;4980031;28;20041;-93
2023/07/21 06:10:56;;;;;;;1999.90;999.90;;;17.10;99.90;;;;;;4979686;28;20027;-93
2023/07/21 06:13:22;;;;;;;1999.90;999.90;;;17.10;99.90;;;;;;4980686;28;20025;-94
2023/07/21 06:15:50;;;;;;;1999.90;999.90;;;17.20;99.90;;;;;;4994514;28;20038;-92
2023/07/21 06:18:16;;;;;;;1999.90;999.90;;;17.30;99.90;;;;;;4992608;28;20096;-93
2023/07/21 06:20:44;;;;;;;1999.90;999.90;;;17.40;99.90;;;;;;4977727;28;20034;-92
2023/07/21 06:23:10;;;;;;;1999.90;999.90;;;17.40;99.90;;;;;;4991119;28;20036;-93
2023/07/21 06:25:41;;;;;;;1999.90;999.90;;;17.50;99.90;;;;;;4979994;28;20409;-94
2023/07/21 06:28:07;;;;;;;1999.90;999.90;;;17.80;99.90;;;;;;4987257;28;20042;-92
2023/07/21 06:30:42;;;;;;;1999.90;999.90;;;18.00;99.90;;;;;;4996404;28;20053;-92
2023/07/21 06:33:17;;;;;;;1999.90;999.90;;;18.20;99.90;;;;;;4993027;28;20034;-92
2023/07/21 06:35:50;;;;;;;1999.90;999.90;;;18.20;99.90;;;;;;4984344;28;20076;-93
2023/07/21 06:38:15;;;;;;;1999.90;999.90;;;18.30;99.90;;;;;;4991728;28;20026;-92
2023/07/21 06:40:41;;;;;;;1999.90;999.90;;;18.40;99.90;;;;;;4993088;28;20041;-93
2023/07/21 06:43:07;;;;;;;1999.90;999.90;;;18.70;99.90;;;;;;4984038;28;20033;-94
2023/07/21 06:45:39;;;;;;;1999.90;999.90;;;18.90;99.90;;;;;;4978107;28;20035;-94
2023/07/21 06:48:06;;;;;;;1999.90;999.90;;;19.10;99.90;;;;;;5002517;28;20072;-93
2023/07/21 06:50:32;;;;;;;1999.90;999.90;;;19.40;99.90;;;;;;4977848;28;20058;-93
2023/07/21 06:52:58;;;;;;;1999.90;999.90;;;19.40;99.90;;;;;;4982384;28;20120;-95
2023/07/21 06:55:24;;;;;;;1999.90;999.90;;;19.30;99.90;;;;;;5008046;28;20065;-93
2023/07/21 06:57:53;;;;;;;1999.90;999.90;;;19.60;99.90;;;;;;4981126;28;20074;-94
2023/07/21 07:00:24;;;;;;;1999.90;999.90;;;20.00;99.90;;;;;;4982861;28;20117;-93
2023/07/21 07:02:50;;;;;;;1999.90;999.90;;;20.10;99.90;;;;;;4991749;28;20041;-96
2023/07/21 07:05:17;;;;;;;1999.90;999.90;;;20.10;99.90;;;;;;4991317;28;20035;-93
2023/07/21 07:07:43;;;;;;;1999.90;999.90;;;20.20;99.90;;;;;;4991401;28;20042;-95
2023/07/21 07:10:20;;;;;;;1999.90;999.90;;;20.40;99.90;;;;;;4985989;28;20394;-91
2023/07/21 07:12:46;;;;;;;1999.90;999.90;;;20.70;99.90;;;;;;4987340;28;20037;-95
2023/07/21 07:15:12;;;;;;;1999.90;999.90;;;21.10;99.90;;;;;;4980427;28;20442;-90
2023/07/21 07:17:40;;;;;;;1999.90;999.90;;;21.10;99.90;;;;;;4991534;28;20414;-90
2023/07/21 07:20:09;;;;;;;1999.90;999.90;;;21.20;99.90;;;;;;4991641;28;20505;-90
2023/07/21 07:22:36;;;;;;;1999.90;999.90;;;21.10;99.90;;;;;;4991582;28;20026;-94
2023/07/21 07:25:02;;;;;;;1999.90;999.90;;;20.90;99.90;;;;;;4975444;28;20031;-93
2023/07/21 07:27:28;;;;;;;1999.90;999.90;;;20.80;99.90;;;;;;4990908;28;20408;-92
2023/07/21 07:29:54;;;;;;;1999.90;999.90;;;21.00;99.90;;;;;;5007463;28;20034;-94
2023/07/21 07:32:22;;;;;;;1999.90;999.90;;;21.00;99.90;;;;;;4989833;28;20022;-93
2023/07/21 07:34:48;;;;;;;1999.90;999.90;;;21.00;99.90;;;;;;4990631;28;20046;-93
2023/07/21 07:37:15;;;;;;;1999.90;999.90;;;21.20;99.90;;;;;;5036920;28;20036;-91
2023/07/21 07:39:44;;;;;;;1999.90;999.90;;;21.40;99.90;;;;;;5037040;28;20017;-92
2023/07/21 07:42:10;;;;;;;1999.90;999.90;;;21.70;99.90;;;;;;5029920;23;20472;-71
2023/07/21 07:44:36;;;;;;;1999.90;999.90;;;22.50;99.90;;;;;;5012422;28;20029;-71
2023/07/21 07:47:01;;;;;;;1999.90;999.90;;;22.50;99.90;;;;;;5030757;28;20372;-72
2023/07/21 07:49:28;;;;;;;1999.90;999.90;;;22.40;99.90;;;;;;5030687;28;20492;-71
2023/07/21 07:51:53;;;;;;;1999.90;999.90;;;22.30;99.90;;;;;;5013054;28;20384;-73
2023/07/21 07:54:19;;;;;;;1999.90;999.90;;;22.70;99.90;;;;;;5030605;28;20033;-72
2023/07/21 07:56:46;;;;;;;1999.90;999.90;;;25.20;99.90;;;;;;5011071;28;20135;-72
2023/07/21 07:59:13;;;;;;;1999.90;999.90;;;27.00;99.90;;;;;;5010878;28;20087;-72
2023/07/21 08:01:38;;;;;;;1999.90;999.90;;;28.00;99.90;;;;;;5044074;28;20021;-72
2023/07/21 08:04:04;;;;;;;1999.90;999.90;;;28.60;99.90;;;;;;5033637;28;20033;-72
2023/07/21 08:06:30;;;;;;;1999.90;999.90;;;28.70;99.40;;;;;;5030153;28;20091;-72
2023/07/21 08:08:55;;;;;;;1999.90;999.90;;;29.00;98.40;;;;;;5014050;28;20116;-72
2023/07/21 08:11:21;;;;;;;1999.90;999.90;;;29.50;98.30;;;;;;5030376;28;20030;-72
2023/07/21 08:13:46;;;;;;;1999.90;999.90;;;30.40;97.20;;;;;;5029734;28;20041;-72
2023/07/21 08:16:13;;;;;;;1999.90;999.90;;;30.40;96.50;;;;;;5030326;28;20484;-72
2023/07/21 08:18:39;;;;;;;1999.90;999.90;;;30.80;95.80;;;;;;5029502;28;20045;-72
2023/07/21 08:21:22;;;;;;;1999.90;999.90;;;31.20;95.10;;;;;;5030083;28;20036;-72
2023/07/21 08:23:49;;;;;;;1999.90;999.90;;;31.20;95.00;;;;;;5030207;28;20069;-72
2023/07/21 08:26:15;;;;;;;1999.90;999.90;;;31.70;94.60;;;;;;5030143;28;20025;-72
2023/07/21 08:28:41;;;;;;;1999.90;999.90;;;31.10;93.70;;;;;;5033739;28;20116;-72
2023/07/21 08:31:06;;;;;;;1999.90;999.90;;;30.70;94.00;;;;;;5034451;28;20101;-72
2023/07/21 08:33:32;;;;;;;1999.90;999.90;;;30.70;94.20;;;;;;5033030;28;20025;-73
2023/07/21 08:35:58;;;;;;;1999.90;999.90;;;30.10;94.80;;;;;;5015243;28;20060;-72
2023/07/21 08:38:24;;;;;;;1999.90;999.90;;;29.50;95.40;;;;;;5014888;28;20037;-72
2023/07/21 08:40:54;;;;;;;1999.90;999.90;;;28.30;96.80;;;;;;5033749;28;20033;-72
2023/07/21 08:43:20;;;;;;;1999.90;999.90;;;29.30;96.10;;;;;;5034404;28;20089;-72
2023/07/21 08:45:49;;;;;;;1999.90;999.90;;;29.30;96.00;;;;;;5015123;28;20049;-72
2023/07/21 08:48:17;;;;;;;1999.90;999.90;;;27.40;97.50;;;;;;5033405;28;20048;-72
2023/07/21 08:50:47;;;;;;;1999.90;999.90;;;26.40;99.90;;;;;;5033499;28;20104;-72
2023/07/21 08:53:12;;;;;;;1999.90;999.90;;;27.70;99.90;;;;;;5033674;28;20420;-73
2023/07/21 08:55:39;;;;;;;1999.90;999.90;;;30.30;97.70;;;;;;5033605;28;20040;-72
2023/07/21 08:58:06;;;;;;;1999.90;999.90;;;28.30;97.10;;;;;;5033487;28;20033;-73
2023/07/21 09:00:31;;;;;;;1999.90;999.90;;;26.70;99.70;;;;;;5032861;28;20021;-72
2023/07/21 09:03:02;;;;;;;1999.90;999.90;;;27.20;99.90;;;;;;5015509;28;20515;-72
2023/07/21 09:05:28;;;;;;;1999.90;999.90;;;28.80;99.10;;;;;;5033691;28;20104;-72
2023/07/21 09:07:54;;;;;;;1999.90;999.90;;;29.80;97.10;;;;;;5033201;28;20488;-72
2023/07/21 09:10:33;;;;;;;1999.90;999.90;;;30.00;97.50;;;;;;5015254;28;20052;-72
2023/07/21 09:13:01;;;;;;;1999.90;999.90;;;30.20;96.90;;;;;;4998237;28;20036;-72
2023/07/21 09:15:26;;;;;;;1999.90;999.90;;;30.00;96.60;;;;;;5031612;28;20025;-72
2023/07/21 09:17:52;;;;;;;1999.90;999.90;;;30.70;96.20;;;;;;5030318;28;20048;-72
2023/07/21 09:20:18;;;;;;;1999.90;999.90;;;31.70;95.30;;;;;;5028131;28;20056;-71
2023/07/21 09:22:48;;;;;;;1999.90;999.90;;;30.60;95.50;;;;;;5032087;28;20100;-72
2023/07/21 09:25:22;;;;;;;1999.90;999.90;;;30.60;96.30;;;;;;5032702;28;20025;-72
2023/07/21 09:27:53;;;;;;;1999.90;999.90;;;31.30;95.30;;;;;;5032855;28;20026;-74
2023/07/21 09:30:19;;;;;;;1999.90;999.90;;;32.10;94.80;;;;;;5032382;28;20025;-72
2023/07/21 09:32:44;;;;;;;1999.90;999.90;;;32.30;94.00;;;;;;5032470;28;20030;-72
2023/07/21 09:35:10;;;;;;;1999.90;999.90;;;32.00;93.90;;;;;;5046619;28;20090;-73
2023/07/21 09:37:38;;;;;;;1999.90;999.90;;;31.70;94.10;;;;;;5032369;28;20052;-73
2023/07/21 09:40:09;;;;;;;1999.90;999.90;;;31.40;94.00;;;;;;5031719;28;20029;-72
2023/07/21 09:42:35;;;;;;;1999.90;999.90;;;32.00;94.20;;;;;;5032637;28;20060;-72
2023/07/21 09:45:01;;;;;;;1999.90;999.90;;;31.80;93.90;;;;;;5014296;28;20037;-72
2023/07/21 09:47:26;;;;;;;1999.90;999.90;;;31.50;93.60;;;;;;5030006;28;20047;-71
2023/07/21 09:49:54;;;;;;;1999.90;999.90;;;31.60;94.40;;;;;;5032221;28;20071;-73
2023/07/21 09:52:22;;;;;;;1999.90;999.90;;;31.10;93.80;;;;;;5014782;28;20076;-73
2023/07/21 09:54:59;;;;;;;1999.90;999.90;;;31.10;93.90;;;;;;5031769;28;20042;-72
2023/07/21 09:57:26;;;;;;;1999.90;999.90;;;32.50;93.80;;;;;;5032460;28;20025;-72
2023/07/21 09:59:56;;;;;;;1999.90;999.90;;;32.10;93.30;;;;;;5014572;28;20021;-72
2023/07/21 10:02:22;;;;;;;1999.90;999.90;;;32.10;93.00;;;;;;5032048;28;20037;-72
2023/07/21 10:04:48;;;;;;;1999.90;999.90;;;32.30;93.00;;;;;;5032650;28;20392;-73
2023/07/21 10:07:14;;;;;;;1999.90;999.90;;;32.80;92.80;;;;;;5032051;28;20021;-72
2023/07/21 10:09:41;;;;;;;1999.90;999.90;;;33.00;92.70;;;;;;5031949;28;20072;-72
2023/07/21 10:12:14;;;;;;;1999.90;999.90;;;32.70;92.30;;;;;;5014728;28;20079;-72
2023/07/21 10:14:41;;;;;;;1999.90;999.90;;;31.60;93.10;;;;;;5030920;28;20471;-72
2023/07/21 10:17:08;;;;;;;1999.90;999.90;;;32.10;93.20;;;;;;5014582;28;20069;-71
2023/07/21 10:19:44;;;;;;;1999.90;999.90;;;31.50;93.50;;;;;;5033546;28;20029;-72
2023/07/21 10:22:24;;;;;;;1999.90;999.90;;;31.70;93.50;;;;;;5028479;28;20477;-72
2023/07/21 10:24:51;;;;;;;1999.90;999.90;;;31.50;93.30;;;;;;5028494;28;20033;-72
2023/07/21 10:27:22;;;;;;;1999.90;999.90;;;31.50;93.70;;;;;;5031849;28;20160;-72
2023/07/21 10:30:14;;;;;;;1999.90;999.90;;;31.40;93.40;;;;;;5031866;28;20029;-72
2023/07/21 10:32:43;;;;;;;;;;;31.70;93.80;;;;;;5033293;28;20025;-72
2023/07/21 10:35:34;;;;;;;1999.90;999.90;;;30.90;93.30;;;;;;5032278;28;20011;-72
2023/07/21 10:38:15;;;;;;;1999.90;999.90;;;30.60;93.80;;;;;;5028637;28;20103;-72
2023/07/21 10:40:44;;;;;;;1999.90;999.90;;;31.10;94.70;;;;;;5031519;28;20029;-73
2023/07/21 10:43:10;;;;;;;1999.90;999.90;;;31.50;93.50;;;;;;5030748;28;20045;-72
2023/07/21 10:45:37;;;;;;;1999.90;999.90;;;31.10;93.90;;;;;;5016209;28;20048;-72
2023/07/21 10:48:13;;;;;;;1999.90;999.90;;;30.60;94.20;;;;;;5033495;28;20503;-71
2023/07/21 10:50:48;;;;;;;1999.90;999.90;;;31.70;93.90;;;;;;5028856;28;20036;-71
2023/07/21 10:53:14;;;;;;;1999.90;999.90;;;31.20;93.90;;;;;;5029871;28;20020;-71
2023/07/21 10:55:43;;;;;;;1999.90;999.90;;;31.00;93.70;;;;;;5015920;28;20025;-71
2023/07/21 10:58:08;;;;;;;1999.90;999.90;;;30.20;94.20;;;;;;5019204;28;20381;-72
2023/07/21 11:00:48;;;;;;;1999.90;999.90;;;29.80;94.60;;;;;;5029621;28;20037;-71
2023/07/21 11:03:15;;;;;;;1999.90;999.90;;;29.60;95.10;;;;;;5012157;28;20082;-71
2023/07/21 11:05:41;;;;;;;1999.90;999.90;;;29.90;94.60;;;;;;5031595;28;20075;-71
2023/07/21 11:08:11;;;;;;;1999.90;999.90;;;29.90;94.90;;;;;;5013584;28;20428;-72
2023/07/21 11:10:37;;;;;;;1999.90;999.90;;;29.60;95.10;;;;;;5031402;28;20029;-72
2023/07/21 11:13:03;;;;;;;1999.90;999.90;;;29.70;95.00;;;;;;5030678;28;20075;-71
2023/07/21 11:15:28;;;;;;;1999.90;999.90;;;30.20;95.40;;;;;;5028370;28;20199;-72
2023/07/21 11:18:00;;;;;;;1999.90;999.90;;;30.50;94.20;;;;;;5033362;28;20078;-71
2023/07/21 11:20:26;;;;;;;1999.90;999.90;;;30.20;93.70;;;;;;5037579;28;20492;-72
2023/07/21 11:22:53;;;;;;;1999.90;999.90;;;29.60;94.40;;;;;;5031377;28;20053;-72
2023/07/21 11:25:19;;;;;;;1999.90;999.90;;;29.30;94.90;;;;;;5030954;28;20480;-72
2023/07/21 11:27:45;;;;;;;1999.90;999.90;;;29.50;94.70;;;;;;5029016;28;20065;-72
2023/07/21 11:30:17;;;;;;;1999.90;999.90;;;29.60;95.30;;;;;;5026067;28;20265;-72
2023/07/21 11:32:42;;;;;;;1999.90;999.90;;;29.40;95.30;;;;;;5030074;28;20093;-73
2023/07/21 11:35:08;;;;;;;1999.90;999.90;;;30.40;95.30;;;;;;5029831;28;20385;-70
2023/07/21 11:37:44;;;;;;;1999.90;999.90;;;30.20;94.80;;;;;;5028864;28;20573;-71
2023/07/21 11:40:25;;;;;;;1999.90;999.90;;;30.00;95.20;;;;;;5030160;28;20579;-71
2023/07/21 11:42:54;;;;;;;1999.90;999.90;;;29.60;95.40;;;;;;5030778;28;20041;-71
2023/07/21 11:45:35;;;;;;;1999.90;999.90;;;29.00;95.90;;;;;;5029793;28;20507;-73
2023/07/21 11:48:15;;;;;;;1999.90;999.90;;;28.60;96.20;;;;;;5005262;28;20037;-73
2023/07/21 11:50:52;;;;;;;1999.90;999.90;;;29.40;96.30;;;;;;5050472;28;20009;-71
2023/07/21 11:53:23;;;;;;;1999.90;999.90;;;29.20;95.80;;;;;;5050698;28;20033;-71
2023/07/21 11:55:49;;;;;;;1999.90;999.90;;;29.20;95.80;;;;;;5051194;28;20025;-71
2023/07/21 11:58:15;;;;;;;1999.90;999.90;;;29.10;96.80;;;;;;5050669;28;20037;-73
2023/07/21 12:00:42;;;;;;;1999.90;999.90;;;29.30;96.20;;;;;;5050934;28;20039;-73
2023/07/21 12:03:09;;;;;;;1999.90;999.90;;;29.40;96.50;;;;;;5053153;28;20450;-70
2023/07/21 12:05:35;;;;;;;1999.90;999.90;;;29.70;96.50;;;;;;5053959;28;20369;-71
2023/07/21 12:08:01;;;;;;;1999.90;999.90;;;29.70;96.60;;;;;;5054272;28;20032;-72
2023/07/21 12:10:27;;;;;;;1999.90;999.90;;;29.00;96.70;;;;;;5043248;28;20048;-72
2023/07/21 12:12:53;;;;;;;1999.90;999.90;;;29.00;97.30;;;;;;5034396;28;20026;-73
2023/07/21 12:15:19;;;;;;;1999.90;999.90;;;28.90;97.40;;;;;;5034199;28;20092;-72
2023/07/21 12:17:48;;;;;;;1999.90;999.90;;;29.40;97.00;;;;;;5034754;28;20105;-71
2023/07/21 12:20:13;;;;;;;1999.90;999.90;;;29.50;96.30;;;;;;5015992;28;20486;-71